Time;durP1;ratioP1;P1;durP2;ratioP2;P2;SDS_P1;SDS_P2;PMS_P1;PMS_P2;Temp;Humidity;BMP_temperature;BMP_pressure;BME280_temperature;BME280_humidity;BME280_pressure;Samples;Min_cycle;Max_cycle;Signal;HPM_P1;HPM_P2
2022/06/05 00:00:17;;;;;;;;;;;23.10;50.60;;;;;;485457;246;1030;-76
2022/06/05 00:02:19;;;;;;;;;;;23.10;50.60;;;;;;485435;246;1053;-76
2022/06/05 00:04:20;;;;;;;;;;;23.20;50.40;;;;;;485400;246;1231;-76
2022/06/05 00:06:21;;;;;;;;;;;23.10;50.40;;;;;;485461;246;946;-76
2022/06/05 00:08:23;;;;;;;;;;;23.10;50.20;;;;;;485462;246;2191;-76
2022/06/05 00:10:24;;;;;;;;;;;23.10;50.40;;;;;;485424;246;1186;-76
2022/06/05 00:12:25;;;;;;;;;;;23.10;50.60;;;;;;485359;246;1079;-76
2022/06/05 00:14:27;;;;;;;;;;;23.00;50.40;;;;;;485376;246;1096;-76
2022/06/05 00:16:28;;;;;;;;;;;23.10;50.40;;;;;;485376;246;987;-76
2022/06/05 00:18:29;;;;;;;;;;;23.10;50.50;;;;;;485396;246;958;-76
2022/06/05 00:20:31;;;;;;;;;;;23.10;50.40;;;;;;485390;246;979;-76
2022/06/05 00:22:32;;;;;;;;;;;23.10;50.30;;;;;;485384;246;1465;-76
2022/06/05 00:24:34;;;;;;;;;;;23.10;50.40;;;;;;485407;246;1245;-76
2022/06/05 00:26:36;;;;;;;;;;;23.10;50.40;;;;;;485334;245;1006;-76
2022/06/05 00:28:37;;;;;;;;;;;23.00;50.30;;;;;;485312;246;2171;-76
2022/06/05 00:30:38;;;;;;;;;;;23.10;50.20;;;;;;485391;246;1138;-76
2022/06/05 00:32:39;;;;;;;;;;;23.00;50.40;;;;;;485392;246;1027;-76
2022/06/05 00:34:42;;;;;;;;;;;23.00;50.50;;;;;;485440;246;1043;-76
2022/06/05 00:36:42;;;;;;;;;;;23.10;50.50;;;;;;485364;245;1405;-76
2022/06/05 00:38:44;;;;;;;;;;;23.10;50.40;;;;;;485538;245;989;-76
2022/06/05 00:40:45;;;;;;;;;;;23.20;50.40;;;;;;485411;245;1219;-76
2022/06/05 00:42:46;;;;;;;;;;;23.20;50.20;;;;;;485398;246;988;-76
2022/06/05 00:44:48;;;;;;;;;;;23.20;50.10;;;;;;485393;245;1031;-76
2022/06/05 00:46:50;;;;;;;;;;;23.10;50.20;;;;;;485375;245;1011;-76
2022/06/05 00:48:50;;;;;;;;;;;23.10;50.20;;;;;;485606;245;2187;-76
2022/06/05 00:50:52;;;;;;;;;;;23.10;50.10;;;;;;485349;246;967;-76
2022/06/05 00:52:55;;;;;;;;;;;23.10;50.10;;;;;;485425;246;960;-76
2022/06/05 00:54:55;;;;;;;;;;;23.10;50.30;;;;;;485282;246;1991;-76
2022/06/05 00:56:56;;;;;;;;;;;23.10;50.30;;;;;;485456;246;1183;-76
2022/06/05 00:58:57;;;;;;;;;;;23.10;50.10;;;;;;485455;246;957;-76
2022/06/05 01:00:59;;;;;;;;;;;23.30;50.00;;;;;;485461;245;954;-76
2022/06/05 01:03:00;;;;;;;;;;;23.30;49.90;;;;;;485438;246;987;-76
2022/06/05 01:05:01;;;;;;;;;;;23.30;49.90;;;;;;485466;246;948;-76
2022/06/05 01:07:03;;;;;;;;;;;23.30;49.80;;;;;;485400;246;984;-76
2022/06/05 01:09:04;;;;;;;;;;;23.30;49.80;;;;;;485387;245;2127;-76
2022/06/05 01:11:06;;;;;;;;;;;23.40;49.70;;;;;;485426;246;1181;-76
2022/06/05 01:13:07;;;;;;;;;;;23.50;49.50;;;;;;485451;245;1057;-76
2022/06/05 01:15:08;;;;;;;;;;;23.40;49.40;;;;;;485411;246;1203;-76
2022/06/05 01:17:10;;;;;;;;;;;23.50;49.30;;;;;;485442;246;1057;-76
2022/06/05 01:19:12;;;;;;;;;;;23.50;49.40;;;;;;485438;246;1041;-76
2022/06/05 01:21:14;;;;;;;;;;;23.50;49.20;;;;;;485435;246;967;-76
2022/06/05 01:23:15;;;;;;;;;;;23.50;49.20;;;;;;485439;246;1532;-76
2022/06/05 01:25:16;;;;;;;;;;;23.50;49.20;;;;;;485461;246;973;-76
2022/06/05 01:27:17;;;;;;;;;;;23.60;49.00;;;;;;485406;246;1138;-76
2022/06/05 01:29:19;;;;;;;;;;;23.60;49.00;;;;;;485627;245;2186;-76
2022/06/05 01:31:20;;;;;;;;;;;23.60;49.10;;;;;;485428;246;963;-76
2022/06/05 01:33:21;;;;;;;;;;;23.50;49.10;;;;;;485467;245;997;-76
2022/06/05 01:35:23;;;;;;;;;;;23.60;48.90;;;;;;485427;246;991;-76
2022/06/05 01:37:24;;;;;;;;;;;23.70;48.90;;;;;;485375;246;1029;-76
2022/06/05 01:39:25;;;;;;;;;;;23.60;48.80;;;;;;485441;245;1044;-76
2022/06/05 01:41:27;;;;;;;;;;;23.70;48.90;;;;;;485626;245;1438;-76
2022/06/05 01:43:28;;;;;;;;;;;23.70;48.70;;;;;;485493;246;1039;-76
2022/06/05 01:45:29;;;;;;;;;;;23.70;48.60;;;;;;485429;246;1039;-76
2022/06/05 01:47:32;;;;;;;;;;;23.70;48.70;;;;;;485571;245;1114;-76
2022/06/05 01:49:32;;;;;;;;;;;23.70;48.70;;;;;;485346;245;2195;-76
2022/06/05 01:51:34;;;;;;;;;;;23.60;48.80;;;;;;485334;246;1158;-76
2022/06/05 01:53:35;;;;;;;;;;;23.70;48.60;;;;;;485440;246;1087;-76
2022/06/05 01:55:36;;;;;;;;;;;23.80;48.50;;;;;;485401;246;1027;-76
2022/06/05 01:57:38;;;;;;;;;;;23.90;48.40;;;;;;485427;245;1221;-76
2022/06/05 01:59:39;;;;;;;;;;;23.80;48.50;;;;;;485486;246;935;-76
2022/06/05 02:01:41;;;;;;;;;;;23.80;48.50;;;;;;485355;246;977;-76
2022/06/05 02:03:42;;;;;;;;;;;23.80;48.40;;;;;;485425;245;952;-76
2022/06/05 02:05:43;;;;;;;;;;;23.70;48.50;;;;;;485419;245;1003;-76
2022/06/05 02:07:45;;;;;;;;;;;23.70;48.50;;;;;;485539;246;1322;-76
2022/06/05 02:09:46;;;;;;;;;;;23.70;48.60;;;;;;485401;246;2202;-76
2022/06/05 02:11:47;;;;;;;;;;;23.70;48.70;;;;;;485388;246;1152;-76
2022/06/05 02:13:49;;;;;;;;;;;23.60;48.90;;;;;;485611;245;1102;-76
2022/06/05 02:15:50;;;;;;;;;;;23.60;48.80;;;;;;485435;245;960;-76
2022/06/05 02:17:52;;;;;;;;;;;23.50;49.00;;;;;;485520;245;1012;-76
2022/06/05 02:19:53;;;;;;;;;;;23.60;48.90;;;;;;485431;245;1061;-76
2022/06/05 02:21:54;;;;;;;;;;;23.70;48.80;;;;;;485302;246;959;-75
2022/06/05 02:23:56;;;;;;;;;;;23.50;48.90;;;;;;485376;245;968;-76
2022/06/05 02:25:57;;;;;;;;;;;23.60;49.00;;;;;;485515;245;1041;-76
2022/06/05 02:27:59;;;;;;;;;;;23.60;48.90;;;;;;485426;246;1180;-76
2022/06/05 02:30:00;;;;;;;;;;;23.70;48.60;;;;;;485493;245;2132;-76
2022/06/05 02:32:01;;;;;;;;;;;23.70;48.60;;;;;;485419;246;998;-76
2022/06/05 02:34:03;;;;;;;;;;;23.70;48.60;;;;;;485645;245;1141;-76
2022/06/05 02:36:04;;;;;;;;;;;23.60;48.70;;;;;;485387;246;986;-76
2022/06/05 02:38:05;;;;;;;;;;;23.60;48.60;;;;;;485575;246;1090;-76
2022/06/05 02:40:07;;;;;;;;;;;23.60;48.80;;;;;;485372;246;1085;-76
2022/06/05 02:42:08;;;;;;;;;;;23.60;48.70;;;;;;485373;242;1259;-76
2022/06/05 02:46:29;;;;;;;;;;;23.70;48.60;;;;;;485583;245;1133;-76
2022/06/05 02:48:30;;;;;;;;;;;23.70;48.60;;;;;;485490;246;2135;-76
2022/06/05 02:50:32;;;;;;;;;;;23.70;48.70;;;;;;485624;245;1068;-76
2022/06/05 02:52:33;;;;;;;;;;;23.70;48.60;;;;;;485521;244;1243;-76
2022/06/05 02:54:34;;;;;;;;;;;23.60;48.70;;;;;;485543;246;1089;-76
2022/06/05 02:56:36;;;;;;;;;;;23.60;48.70;;;;;;485450;246;1061;-76
2022/06/05 02:58:37;;;;;;;;;;;23.70;48.70;;;;;;485373;245;1145;-76
2022/06/05 03:00:39;;;;;;;;;;;23.80;48.50;;;;;;485385;245;1073;-76
2022/06/05 03:04:59;;;;;;;;;;;23.70;48.40;;;;;;485438;245;1138;-76
2022/06/05 03:07:01;;;;;;;;;;;23.70;48.30;;;;;;485342;245;1133;-76
2022/06/05 03:09:02;;;;;;;;;;;23.70;48.40;;;;;;485388;246;2178;-76
2022/06/05 03:11:03;;;;;;;;;;;23.70;48.40;;;;;;485394;245;1097;-76
2022/06/05 03:13:05;;;;;;;;;;;23.50;48.50;;;;;;485479;245;1198;-76
2022/06/05 03:15:06;;;;;;;;;;;23.50;48.70;;;;;;485456;246;1003;-76
2022/06/05 03:17:07;;;;;;;;;;;23.50;48.80;;;;;;485556;246;1254;-76
2022/06/05 03:19:09;;;;;;;;;;;23.60;48.60;;;;;;485377;246;981;-76
2022/06/05 03:21:10;;;;;;;;;;;23.70;48.60;;;;;;485398;245;1197;-75
2022/06/05 03:23:12;;;;;;;;;;;23.70;48.50;;;;;;485403;246;1032;-76
2022/06/05 03:25:13;;;;;;;;;;;23.70;48.50;;;;;;485462;246;1142;-76
2022/06/05 03:27:14;;;;;;;;;;;23.60;48.40;;;;;;485384;245;1301;-76
2022/06/05 03:29:15;;;;;;;;;;;23.60;48.50;;;;;;485432;245;2120;-76
2022/06/05 03:31:17;;;;;;;;;;;23.60;48.60;;;;;;485403;246;1035;-76
2022/06/05 03:33:18;;;;;;;;;;;23.50;48.80;;;;;;485398;245;965;-76
2022/06/05 03:35:19;;;;;;;;;;;23.50;48.90;;;;;;485379;246;1002;-76
2022/06/05 03:37:21;;;;;;;;;;;23.60;48.70;;;;;;485411;246;1050;-76
2022/06/05 03:39:22;;;;;;;;;;;23.60;48.70;;;;;;485406;246;1174;-76
2022/06/05 03:41:23;;;;;;;;;;;23.60;48.60;;;;;;485441;245;957;-76
2022/06/05 03:43:25;;;;;;;;;;;23.50;48.80;;;;;;485443;245;1204;-76
2022/06/05 03:45:26;;;;;;;;;;;23.50;48.80;;;;;;485410;246;1035;-76
2022/06/05 03:47:27;;;;;;;;;;;23.50;48.80;;;;;;485444;246;1018;-76
2022/06/05 03:49:29;;;;;;;;;;;23.40;48.80;;;;;;485428;246;2187;-76
2022/06/05 03:51:30;;;;;;;;;;;23.50;48.70;;;;;;485418;245;948;-76
2022/06/05 03:53:31;;;;;;;;;;;23.60;48.70;;;;;;485371;246;963;-76
2022/06/05 03:55:33;;;;;;;;;;;23.60;48.50;;;;;;485449;245;981;-76
2022/06/05 03:57:34;;;;;;;;;;;23.60;48.60;;;;;;485355;246;1153;-76
2022/06/05 03:59:35;;;;;;;;;;;23.60;48.30;;;;;;485414;245;1202;-76
2022/06/05 04:01:37;;;;;;;;;;;23.60;48.40;;;;;;485419;246;988;-76
2022/06/05 04:03:38;;;;;;;;;;;23.70;48.30;;;;;;485441;245;931;-76
2022/06/05 04:05:40;;;;;;;;;;;23.70;48.20;;;;;;485357;246;951;-76
2022/06/05 04:07:41;;;;;;;;;;;23.50;48.40;;;;;;485434;245;1093;-76
2022/06/05 04:09:42;;;;;;;;;;;23.60;48.40;;;;;;485379;246;2183;-76
2022/06/05 04:11:43;;;;;;;;;;;23.60;48.40;;;;;;485376;246;1123;-76
2022/06/05 04:13:45;;;;;;;;;;;23.70;48.40;;;;;;485475;245;1175;-76
2022/06/05 04:15:46;;;;;;;;;;;23.90;48.10;;;;;;485460;246;1206;-76
2022/06/05 04:17:48;;;;;;;;;;;23.70;48.10;;;;;;485407;245;1090;-76
2022/06/05 04:19:49;;;;;;;;;;;23.70;48.20;;;;;;485463;246;951;-76
2022/06/05 04:21:50;;;;;;;;;;;23.70;48.30;;;;;;485450;245;1233;-76
2022/06/05 04:23:52;;;;;;;;;;;23.70;48.20;;;;;;485403;246;1096;-76
2022/06/05 04:25:53;;;;;;;;;;;23.80;48.10;;;;;;485561;245;1233;-76
2022/06/05 04:27:54;;;;;;;;;;;23.80;48.00;;;;;;485576;246;1094;-76
2022/06/05 04:29:55;;;;;;;;;;;23.80;48.10;;;;;;485588;246;2190;-76
2022/06/05 04:31:57;;;;;;;;;;;23.70;48.20;;;;;;485375;245;1093;-76
2022/06/05 04:33:58;;;;;;;;;;;23.80;48.10;;;;;;485380;245;1224;-76
2022/06/05 04:35:59;;;;;;;;;;;23.80;48.00;;;;;;485546;245;1185;-76
2022/06/05 04:38:01;;;;;;;;;;;23.60;48.30;;;;;;485312;246;1102;-76
2022/06/05 04:40:02;;;;;;;;;;;23.60;48.40;;;;;;485323;246;1247;-76
2022/06/05 04:42:04;;;;;;;;;;;23.60;48.40;;;;;;485360;245;1122;-76
2022/06/05 04:44:06;;;;;;;;;;;23.70;48.40;;;;;;485415;246;1086;-76
2022/06/05 04:46:07;;;;;;;;;;;23.70;48.40;;;;;;485485;245;1214;-76
2022/06/05 04:48:10;;;;;;;;;;;23.70;48.50;;;;;;485396;246;1099;-76
2022/06/05 04:50:10;;;;;;;;;;;23.70;48.10;;;;;;485453;246;2210;-76
2022/06/05 04:52:12;;;;;;;;;;;23.60;48.50;;;;;;485294;245;1089;-76
2022/06/05 04:54:13;;;;;;;;;;;23.60;48.50;;;;;;485483;246;1229;-76
2022/06/05 04:56:15;;;;;;;;;;;23.60;48.40;;;;;;485491;246;1099;-76
2022/06/05 04:58:16;;;;;;;;;;;23.70;48.30;;;;;;485536;246;1074;-76
2022/06/05 05:00:17;;;;;;;;;;;24.00;47.90;;;;;;485569;245;1179;-76
2022/06/05 05:02:19;;;;;;;;;;;24.00;47.90;;;;;;485369;246;1090;-76
2022/06/05 05:04:20;;;;;;;;;;;23.90;47.90;;;;;;485503;246;1100;-76
2022/06/05 05:06:21;;;;;;;;;;;23.90;48.00;;;;;;485362;246;1223;-76
2022/06/05 05:08:23;;;;;;;;;;;23.90;48.10;;;;;;485535;246;1172;-76
2022/06/05 05:10:24;;;;;;;;;;;23.80;48.20;;;;;;485526;244;2207;-76
2022/06/05 05:12:26;;;;;;;;;;;23.90;48.10;;;;;;485419;246;1205;-76
2022/06/05 05:14:27;;;;;;;;;;;23.80;48.20;;;;;;485623;246;1309;-76
2022/06/05 05:16:28;;;;;;;;;;;23.70;48.40;;;;;;485370;246;1080;-76
2022/06/05 05:18:29;;;;;;;;;;;23.70;48.50;;;;;;485454;245;1087;-76
2022/06/05 05:20:31;;;;;;;;;;;23.60;48.50;;;;;;485557;246;1369;-76
2022/06/05 05:22:37;;;;;;;;;;;23.60;48.60;;;;;;485507;246;1062;-76
2022/06/05 05:24:34;;;;;;;;;;;23.60;48.70;;;;;;485110;245;1408;-76
2022/06/05 05:26:36;;;;;;;;;;;23.70;48.70;;;;;;485312;246;1091;-76
2022/06/05 05:28:37;;;;;;;;;;;23.90;48.10;;;;;;485358;246;1038;-76
2022/06/05 05:30:38;;;;;;;;;;;23.90;48.00;;;;;;485342;246;2251;-76
2022/06/05 05:32:40;;;;;;;;;;;23.90;47.90;;;;;;485317;246;1155;-76
2022/06/05 05:34:41;;;;;;;;;;;23.70;48.20;;;;;;485372;245;1002;-76
2022/06/05 05:36:42;;;;;;;;;;;23.70;48.30;;;;;;485432;246;983;-76
2022/06/05 05:42:04;;;;;;;;;;;23.70;48.30;;;;;;485439;245;1066;-76
2022/06/05 05:43:22;;;;;;;;;;;23.50;48.70;;;;;;469781;254;1226;-76
2022/06/05 05:45:23;;;;;;;;;;;23.60;48.60;;;;;;477944;245;1201;-76
2022/06/05 05:47:25;;;;;;;;;;;23.60;48.70;;;;;;485431;245;1034;-76
2022/06/05 05:49:26;;;;;;;;;;;23.50;48.70;;;;;;485363;245;2183;-76
2022/06/05 05:51:27;;;;;;;;;;;23.50;48.60;;;;;;485295;246;1051;-76
2022/06/05 05:53:29;;;;;;;;;;;23.50;48.70;;;;;;485351;245;961;-76
2022/06/05 05:55:30;;;;;;;;;;;23.50;48.80;;;;;;485264;246;980;-76
2022/06/05 05:57:31;;;;;;;;;;;23.60;48.70;;;;;;485341;246;1055;-76
2022/06/05 05:59:33;;;;;;;;;;;23.60;48.50;;;;;;485385;245;1159;-76
2022/06/05 06:01:34;;;;;;;;;;;23.50;48.60;;;;;;485377;245;1034;-76
2022/06/05 06:03:35;;;;;;;;;;;23.60;48.50;;;;;;485441;245;1060;-76
2022/06/05 06:05:37;;;;;;;;;;;23.70;48.30;;;;;;485340;245;1022;-76
2022/06/05 06:07:38;;;;;;;;;;;23.70;48.30;;;;;;485263;246;1053;-76
2022/06/05 06:09:39;;;;;;;;;;;23.50;48.50;;;;;;485381;245;2187;-76
2022/06/05 06:11:41;;;;;;;;;;;23.50;48.70;;;;;;485374;245;1230;-76
2022/06/05 06:13:42;;;;;;;;;;;23.50;48.60;;;;;;485372;246;1007;-76
2022/06/05 06:15:43;;;;;;;;;;;23.60;48.40;;;;;;485411;245;1171;-76
2022/06/05 06:17:45;;;;;;;;;;;23.70;48.20;;;;;;485444;246;1220;-76
2022/06/05 06:19:46;;;;;;;;;;;23.70;48.20;;;;;;485441;245;941;-76
2022/06/05 06:21:47;;;;;;;;;;;23.80;48.30;;;;;;485396;246;1186;-76
2022/06/05 06:23:49;;;;;;;;;;;23.70;48.20;;;;;;485396;245;967;-76
2022/06/05 06:25:50;;;;;;;;;;;23.70;48.30;;;;;;485359;246;1318;-76
2022/06/05 06:27:51;;;;;;;;;;;23.70;48.30;;;;;;485369;246;1158;-76
2022/06/05 06:29:53;;;;;;;;;;;23.70;48.30;;;;;;485414;246;2186;-76
2022/06/05 06:31:54;;;;;;;;;;;23.70;48.30;;;;;;485423;245;1115;-76
2022/06/05 06:33:55;;;;;;;;;;;23.70;48.30;;;;;;485433;246;976;-76
2022/06/05 06:35:57;;;;;;;;;;;23.70;48.30;;;;;;485641;245;1096;-76
2022/06/05 06:37:58;;;;;;;;;;;23.70;48.50;;;;;;485397;245;1016;-76
2022/06/05 06:39:59;;;;;;;;;;;23.50;48.70;;;;;;485400;246;960;-76
2022/06/05 06:42:01;;;;;;;;;;;23.60;48.70;;;;;;485496;246;1079;-76
2022/06/05 06:44:03;;;;;;;;;;;23.60;48.80;;;;;;485386;245;1023;-76
2022/06/05 06:46:04;;;;;;;;;;;23.50;48.80;;;;;;485392;245;1282;-76
2022/06/05 06:48:06;;;;;;;;;;;23.60;48.80;;;;;;485516;245;1103;-76
2022/06/05 06:50:07;;;;;;;;;;;23.60;48.70;;;;;;485425;246;2200;-76
2022/06/05 06:52:09;;;;;;;;;;;23.80;48.40;;;;;;485403;245;1106;-76
2022/06/05 06:54:10;;;;;;;;;;;23.80;48.30;;;;;;485421;246;1072;-75
2022/06/05 06:56:12;;;;;;;;;;;23.70;48.40;;;;;;485444;246;1193;-76
2022/06/05 06:58:12;;;;;;;;;;;23.80;48.50;;;;;;485651;245;1414;-76
2022/06/05 07:00:14;;;;;;;;;;;23.80;48.50;;;;;;485461;245;1031;-76
2022/06/05 07:02:15;;;;;;;;;;;23.80;48.50;;;;;;485351;246;1187;-76
2022/06/05 07:04:17;;;;;;;;;;;23.90;48.30;;;;;;485373;246;1060;-76
2022/06/05 07:06:20;;;;;;;;;;;23.80;48.40;;;;;;485341;246;1136;-76
2022/06/05 07:08:19;;;;;;;;;;;23.90;48.20;;;;;;485568;245;1417;-76
2022/06/05 07:10:21;;;;;;;;;;;23.80;48.40;;;;;;485390;246;2123;-76
2022/06/05 07:12:22;;;;;;;;;;;23.80;48.30;;;;;;485390;246;1224;-76
2022/06/05 07:14:25;;;;;;;;;;;23.90;48.40;;;;;;485430;246;1154;-76
2022/06/05 07:16:25;;;;;;;;;;;23.90;48.20;;;;;;485273;245;1420;-76
2022/06/05 07:18:26;;;;;;;;;;;23.90;48.40;;;;;;485382;246;1106;-76
2022/06/05 07:20:27;;;;;;;;;;;23.80;48.60;;;;;;485670;246;1087;-76
2022/06/05 07:22:29;;;;;;;;;;;23.70;48.70;;;;;;485331;245;1139;-76
2022/06/05 07:24:30;;;;;;;;;;;23.90;48.60;;;;;;485443;246;985;-76
2022/06/05 07:26:31;;;;;;;;;;;23.90;48.60;;;;;;485401;245;1217;-76
2022/06/05 07:28:33;;;;;;;;;;;23.80;48.60;;;;;;485693;245;1564;-76
2022/06/05 07:30:34;;;;;;;;;;;23.90;48.50;;;;;;485438;246;2190;-76
2022/06/05 07:32:35;;;;;;;;;;;23.90;48.40;;;;;;485491;246;1180;-76
2022/06/05 07:34:37;;;;;;;;;;;23.90;48.50;;;;;;485450;245;941;-76
2022/06/05 07:36:38;;;;;;;;;;;23.90;48.40;;;;;;485457;245;958;-76
2022/06/05 07:38:39;;;;;;;;;;;23.90;48.40;;;;;;485482;245;912;-76
2022/06/05 07:40:41;;;;;;;;;;;24.00;48.50;;;;;;485458;246;967;-77
2022/06/05 07:42:42;;;;;;;;;;;24.00;48.40;;;;;;485406;246;1050;-76
2022/06/05 07:44:43;;;;;;;;;;;23.90;48.50;;;;;;485395;246;1059;-76
2022/06/05 07:46:45;;;;;;;;;;;24.00;48.50;;;;;;485435;245;1156;-76
2022/06/05 07:48:46;;;;;;;;;;;24.00;48.40;;;;;;485450;246;1043;-76
2022/06/05 07:55:26;;;;;;;;;;;24.20;48.10;;;;;;485408;245;958;-76
2022/06/05 07:57:27;;;;;;;;;;;24.10;48.20;;;;;;485593;243;1101;-76
2022/06/05 07:59:29;;;;;;;;;;;24.10;48.30;;;;;;485445;246;1034;-76
2022/06/05 08:01:30;;;;;;;;;;;24.10;48.30;;;;;;485416;246;1167;-76
2022/06/05 08:03:31;;;;;;;;;;;24.10;48.40;;;;;;485656;246;1060;-76
2022/06/05 08:05:33;;;;;;;;;;;24.10;48.40;;;;;;485633;246;1022;-76
2022/06/05 08:07:34;;;;;;;;;;;24.20;48.30;;;;;;485337;246;1144;-76
2022/06/05 08:09:35;;;;;;;;;;;24.10;48.30;;;;;;485341;245;1085;-76
2022/06/05 08:11:37;;;;;;;;;;;24.10;48.40;;;;;;485365;246;2191;-76
2022/06/05 08:13:38;;;;;;;;;;;24.10;48.30;;;;;;485420;246;1011;-76
2022/06/05 08:15:39;;;;;;;;;;;24.20;48.20;;;;;;485469;245;982;-76
2022/06/05 08:17:41;;;;;;;;;;;24.20;48.10;;;;;;485507;243;1184;-76
2022/06/05 08:19:42;;;;;;;;;;;24.10;48.20;;;;;;485434;246;1102;-76
2022/06/05 08:21:44;;;;;;;;;;;24.10;48.50;;;;;;485315;246;959;-76
2022/06/05 08:23:45;;;;;;;;;;;24.20;48.30;;;;;;485495;245;1304;-76
2022/06/05 08:25:46;;;;;;;;;;;24.20;48.30;;;;;;485330;246;963;-76
2022/06/05 08:27:48;;;;;;;;;;;24.20;48.40;;;;;;485402;245;1359;-76
2022/06/05 08:29:49;;;;;;;;;;;24.30;48.20;;;;;;485379;246;1091;-76
2022/06/05 08:31:51;;;;;;;;;;;24.30;48.10;;;;;;485351;246;2120;-76
2022/06/05 08:33:51;;;;;;;;;;;24.30;48.20;;;;;;485379;246;1330;-76
2022/06/05 08:35:53;;;;;;;;;;;24.20;48.20;;;;;;485371;245;969;-76
2022/06/05 08:42:53;;;;;;;;;;;24.30;48.20;;;;;;474721;245;1177;-76
2022/06/05 08:44:55;;;;;;;;;;;24.30;48.00;;;;;;485348;246;959;-76
2022/06/05 08:46:56;;;;;;;;;;;24.40;48.00;;;;;;485369;246;1196;-76
2022/06/05 08:48:57;;;;;;;;;;;24.40;48.00;;;;;;485454;246;951;-76
2022/06/05 08:50:59;;;;;;;;;;;24.50;47.60;;;;;;485407;246;2186;-76
2022/06/05 08:53:03;;;;;;;;;;;24.50;47.40;;;;;;485421;245;1087;-76
2022/06/05 08:55:01;;;;;;;;;;;24.60;47.40;;;;;;485245;245;1302;-76
2022/06/05 08:57:03;;;;;;;;;;;24.70;47.30;;;;;;485424;245;998;-76
2022/06/05 08:59:04;;;;;;;;;;;24.80;46.90;;;;;;485446;246;1005;-76
2022/06/05 09:01:05;;;;;;;;;;;24.60;47.20;;;;;;485370;245;1260;-76
2022/06/05 09:03:07;;;;;;;;;;;24.60;47.30;;;;;;485399;246;1069;-76
2022/06/05 09:05:08;;;;;;;;;;;24.60;47.40;;;;;;485406;245;965;-76
2022/06/05 09:07:09;;;;;;;;;;;24.50;47.50;;;;;;485352;246;963;-76
2022/06/05 09:09:11;;;;;;;;;;;24.50;47.50;;;;;;485469;245;1103;-76
2022/06/05 09:11:12;;;;;;;;;;;24.60;47.50;;;;;;485425;246;2116;-76
2022/06/05 09:13:14;;;;;;;;;;;24.50;47.60;;;;;;485396;246;1095;-76
2022/06/05 09:15:15;;;;;;;;;;;24.30;47.90;;;;;;485384;245;1078;-76
2022/06/05 09:17:16;;;;;;;;;;;24.30;48.00;;;;;;485402;246;947;-76
2022/06/05 09:19:18;;;;;;;;;;;24.20;48.20;;;;;;485436;245;1153;-76
2022/06/05 09:21:19;;;;;;;;;;;24.10;48.30;;;;;;485370;246;1114;-76
2022/06/05 09:23:20;;;;;;;;;;;24.30;48.00;;;;;;485439;246;1375;-76
2022/06/05 09:25:22;;;;;;;;;;;24.20;48.00;;;;;;485437;246;953;-76
2022/06/05 09:27:23;;;;;;;;;;;24.10;48.30;;;;;;485462;246;1151;-76
2022/06/05 09:29:24;;;;;;;;;;;24.00;48.40;;;;;;485392;245;1055;-76
2022/06/05 09:31:26;;;;;;;;;;;24.20;48.40;;;;;;485472;246;2209;-76
2022/06/05 09:33:29;;;;;;;;;;;24.20;48.20;;;;;;485396;246;1186;-76
2022/06/05 09:35:29;;;;;;;;;;;24.20;48.20;;;;;;485219;245;1422;-76
2022/06/05 09:37:30;;;;;;;;;;;24.20;48.10;;;;;;485322;245;1257;-76
2022/06/05 09:39:31;;;;;;;;;;;24.30;48.10;;;;;;485363;246;964;-76
2022/06/05 09:41:33;;;;;;;;;;;24.10;48.40;;;;;;485398;245;1077;-76
2022/06/05 09:43:34;;;;;;;;;;;24.00;48.40;;;;;;485433;245;971;-76
2022/06/05 09:45:36;;;;;;;;;;;24.00;48.50;;;;;;485392;246;1068;-76
2022/06/05 09:47:37;;;;;;;;;;;24.00;48.70;;;;;;485367;246;1077;-76
2022/06/05 09:49:38;;;;;;;;;;;24.20;48.30;;;;;;485415;245;1154;-76
2022/06/05 09:51:42;;;;;;;;;;;24.20;48.30;;;;;;485303;246;2195;-76
2022/06/05 09:53:42;;;;;;;;;;;24.40;48.10;;;;;;485228;245;1446;-76
2022/06/05 09:55:43;;;;;;;;;;;24.20;48.30;;;;;;485371;246;1288;-76
2022/06/05 10:00:03;;;;;;;;;;;24.10;48.30;;;;;;485443;245;993;-76
2022/06/05 10:02:05;;;;;;;;;;;24.10;48.50;;;;;;485333;246;1190;-76
2022/06/05 10:04:06;;;;;;;;;;;24.00;48.50;;;;;;485514;246;1131;-76
2022/06/05 10:06:07;;;;;;;;;;;23.90;48.80;;;;;;485381;245;1155;-76
2022/06/05 10:08:09;;;;;;;;;;;24.20;48.40;;;;;;485376;246;1043;-76
2022/06/05 10:10:10;;;;;;;;;;;24.00;48.70;;;;;;485513;246;1068;-76
2022/06/05 10:12:11;;;;;;;;;;;24.10;48.60;;;;;;485584;245;2196;-76
2022/06/05 10:14:13;;;;;;;;;;;24.10;48.60;;;;;;485660;246;1109;-76
2022/06/05 10:16:14;;;;;;;;;;;24.10;48.50;;;;;;485447;246;1153;-75
2022/06/05 10:18:16;;;;;;;;;;;24.10;48.40;;;;;;485370;246;1091;-76
2022/06/05 10:20:17;;;;;;;;;;;24.00;48.70;;;;;;485533;245;1134;-76
2022/06/05 10:22:18;;;;;;;;;;;24.00;48.80;;;;;;485416;246;1185;-76
2022/06/05 10:24:19;;;;;;;;;;;23.90;48.90;;;;;;485468;245;973;-76
2022/06/05 10:26:21;;;;;;;;;;;24.20;48.70;;;;;;485414;246;970;-76
2022/06/05 10:28:22;;;;;;;;;;;24.10;48.40;;;;;;485397;246;1113;-76
2022/06/05 10:30:26;;;;;;;;;;;24.20;48.40;;;;;;485481;246;964;-76
2022/06/05 10:32:25;;;;;;;;;;;24.10;48.40;;;;;;485225;245;2175;-76
2022/06/05 10:34:26;;;;;;;;;;;24.20;48.50;;;;;;485381;246;1172;-76
2022/06/05 10:36:28;;;;;;;;;;;24.10;48.60;;;;;;485370;245;943;-76
2022/06/05 10:38:29;;;;;;;;;;;24.20;48.50;;;;;;485479;245;979;-76
2022/06/05 10:40:30;;;;;;;;;;;24.10;48.50;;;;;;485492;245;958;-76
2022/06/05 10:42:31;;;;;;;;;;;24.00;48.70;;;;;;485414;245;1293;-76
2022/06/05 10:44:33;;;;;;;;;;;24.10;48.70;;;;;;485436;246;958;-76
2022/06/05 10:46:34;;;;;;;;;;;24.10;48.50;;;;;;485408;246;1045;-76
2022/06/05 10:48:36;;;;;;;;;;;24.10;48.60;;;;;;485453;246;971;-76
2022/06/05 10:50:37;;;;;;;;;;;24.10;48.70;;;;;;485436;245;1246;-76
2022/06/05 10:52:38;;;;;;;;;;;24.10;48.70;;;;;;485385;246;2199;-76
2022/06/05 10:54:40;;;;;;;;;;;24.10;48.70;;;;;;485372;246;1077;-76
2022/06/05 10:56:41;;;;;;;;;;;24.00;48.70;;;;;;485372;246;967;-76
2022/06/05 10:58:42;;;;;;;;;;;24.10;48.60;;;;;;485657;246;1088;-76
2022/06/05 11:00:44;;;;;;;;;;;24.10;48.70;;;;;;485425;246;1034;-76
2022/06/05 11:02:45;;;;;;;;;;;24.00;48.80;;;;;;485371;245;1204;-76
2022/06/05 11:04:46;;;;;;;;;;;24.20;48.40;;;;;;485377;245;1138;-76
2022/06/05 11:06:50;;;;;;;;;;;24.20;48.50;;;;;;485299;246;1075;-76
2022/06/05 11:08:49;;;;;;;;;;;24.50;48.20;;;;;;485320;245;1621;-76
2022/06/05 11:15:33;;;;;;;;;;;24.30;48.20;;;;;;482861;245;1197;-76
2022/06/05 11:17:34;;;;;;;;;;;24.20;48.30;;;;;;485455;246;1246;-76
2022/06/05 11:19:35;;;;;;;;;;;24.10;48.50;;;;;;485445;245;1333;-76
2022/06/05 11:21:37;;;;;;;;;;;24.10;48.50;;;;;;485396;246;1033;-76
2022/06/05 11:23:38;;;;;;;;;;;24.20;48.60;;;;;;485417;245;1098;-76
2022/06/05 11:25:40;;;;;;;;;;;24.10;48.80;;;;;;485403;246;1138;-76
2022/06/05 11:27:41;;;;;;;;;;;24.20;48.70;;;;;;485377;245;1225;-76
2022/06/05 11:29:42;;;;;;;;;;;24.10;48.70;;;;;;485341;245;1038;-76
2022/06/05 11:31:44;;;;;;;;;;;24.20;48.60;;;;;;485479;246;2198;-76
2022/06/05 11:33:45;;;;;;;;;;;24.30;48.50;;;;;;485471;245;1210;-76
2022/06/05 11:35:46;;;;;;;;;;;24.30;48.30;;;;;;485431;245;1167;-76
2022/06/05 11:37:48;;;;;;;;;;;24.10;48.60;;;;;;485399;245;1117;-76
2022/06/05 11:39:49;;;;;;;;;;;24.10;48.70;;;;;;485407;246;1067;-76
2022/06/05 11:41:50;;;;;;;;;;;24.00;48.90;;;;;;485477;245;1203;-76
2022/06/05 11:43:52;;;;;;;;;;;24.10;49.10;;;;;;485446;246;977;-77
2022/06/05 11:45:53;;;;;;;;;;;24.10;48.90;;;;;;485392;245;1158;-76
2022/06/05 11:47:55;;;;;;;;;;;24.10;49.00;;;;;;485409;246;1097;-76
2022/06/05 11:49:56;;;;;;;;;;;24.10;48.90;;;;;;485441;246;1155;-76
2022/06/05 11:51:58;;;;;;;;;;;24.10;49.00;;;;;;485459;245;2194;-76
2022/06/05 11:53:59;;;;;;;;;;;24.00;49.00;;;;;;485393;246;1015;-76
2022/06/05 11:56:00;;;;;;;;;;;24.00;49.20;;;;;;485363;246;1340;-75
2022/06/05 11:58:02;;;;;;;;;;;23.90;49.30;;;;;;485408;245;1067;-76
2022/06/05 12:00:03;;;;;;;;;;;24.00;49.10;;;;;;485399;245;991;-76
2022/06/05 12:02:05;;;;;;;;;;;24.00;49.20;;;;;;485412;245;979;-76
2022/06/05 12:04:06;;;;;;;;;;;24.10;49.10;;;;;;485410;246;1062;-76
2022/06/05 12:06:08;;;;;;;;;;;24.00;48.90;;;;;;485300;245;1118;-76
2022/06/05 12:08:09;;;;;;;;;;;24.00;49.10;;;;;;485467;245;941;-76
2022/06/05 12:10:10;;;;;;;;;;;24.20;48.90;;;;;;485434;246;1044;-76
2022/06/05 12:12:13;;;;;;;;;;;24.00;49.10;;;;;;485405;246;2341;-76
2022/06/05 12:14:14;;;;;;;;;;;24.00;49.20;;;;;;485495;245;1421;-76
2022/06/05 12:16:15;;;;;;;;;;;24.10;49.20;;;;;;485365;246;1058;-76
2022/06/05 12:18:16;;;;;;;;;;;23.90;49.30;;;;;;485497;246;1131;-76
2022/06/05 12:20:18;;;;;;;;;;;24.30;49.10;;;;;;485465;245;1188;-76
2022/06/05 12:22:19;;;;;;;;;;;24.10;49.10;;;;;;485364;246;1032;-76